Terminal Aerodrome Forecast
Issued by NWS

Home | Current Version | Previous Version | Text Only | Print | Product List | Glossary On
Versions: 1 2 3 4 5 6 7 8 9 10 11 12 13 14 15 16 17 18 19 20 21 22 23 24
000
FTUS43 KAPX 261120
TAFAPN
TAF
KAPN 261120Z 2612/2712 VRB03KT P6SM VCSH BKN025
      TEMPO 2612/2615 3SM -SHSN BKN018
     FM261800 10006KT P6SM OVC035
     FM270800 04005KT P6SM BKN035 BKN100=

USA.gov is the U.S. government's official web portal to all federal, state and local government web resources and services.